sensor_id;sensor_type;location;lat;lon;timestamp;pressure;altitude;pressure_sealevel;temperature;humidity
79347;BME280;68815;48.810;44.482;2024-02-23T00:01:37;102102;;;-7.6;84.9
79347;BME280;68815;48.810;44.482;2024-02-23T00:04:39;102105;;;-7.6;85.1
79347;BME280;68815;48.810;44.482;2024-02-23T00:07:40;102111;;;-7.5;85.4
79347;BME280;68815;48.810;44.482;2024-02-23T00:10:42;102111;;;-7.4;84.9
79347;BME280;68815;48.810;44.482;2024-02-23T00:13:44;102108;;;-7.5;85.3
79347;BME280;68815;48.810;44.482;2024-02-23T00:16:46;102113;;;-7.7;86
79347;BME280;68815;48.810;44.482;2024-02-23T00:19:47;102104;;;-7.5;86.2
79347;BME280;68815;48.810;44.482;2024-02-23T00:22:49;102110;;;-7.7;86.2
79347;BME280;68815;48.810;44.482;2024-02-23T00:25:51;102104;;;-7.4;85.9
79347;BME280;68815;48.810;44.482;2024-02-23T00:28:52;102108;;;-7.5;85.6
79347;BME280;68815;48.810;44.482;2024-02-23T00:31:54;102107;;;-7.4;85.6
79347;BME280;68815;48.810;44.482;2024-02-23T00:34:57;102106;;;-7.4;85.4
79347;BME280;68815;48.810;44.482;2024-02-23T00:38:00;102106;;;-7.4;85.2
79347;BME280;68815;48.810;44.482;2024-02-23T00:41:02;102108;;;-7.3;84.9
79347;BME280;68815;48.810;44.482;2024-02-23T00:44:05;102105;;;-7.3;84.9
79347;BME280;68815;48.810;44.482;2024-02-23T00:47:07;102118;;;-7.5;85.2
79347;BME280;68815;48.810;44.482;2024-02-23T00:50:09;102109;;;-7.5;85.4
79347;BME280;68815;48.810;44.482;2024-02-23T00:53:11;102109;;;-7.4;85.2
79347;BME280;68815;48.810;44.482;2024-02-23T00:56:12;102117;;;-7.3;84.7
79347;BME280;68815;48.810;44.482;2024-02-23T00:59:14;102126;;;-7.4;84.8
79347;BME280;68815;48.810;44.482;2024-02-23T01:02:17;102133;;;-7.5;85.2
79347;BME280;68815;48.810;44.482;2024-02-23T01:05:19;102124;;;-7.5;85.6
79347;BME280;68815;48.810;44.482;2024-02-23T01:08:21;102122;;;-7.5;85.9
79347;BME280;68815;48.810;44.482;2024-02-23T01:11:23;102125;;;-7.3;85.3
79347;BME280;68815;48.810;44.482;2024-02-23T01:14:25;102125;;;-7.4;85.6
79347;BME280;68815;48.810;44.482;2024-02-23T01:17:27;102128;;;-7.6;86
79347;BME280;68815;48.810;44.482;2024-02-23T01:20:29;102130;;;-7.5;86.5
79347;BME280;68815;48.810;44.482;2024-02-23T01:23:30;102127;;;-7.6;86.6
79347;BME280;68815;48.810;44.482;2024-02-23T01:26:32;102123;;;-7.5;86.9
79347;BME280;68815;48.810;44.482;2024-02-23T01:29:34;102129;;;-7.6;87.2
79347;BME280;68815;48.810;44.482;2024-02-23T01:32:36;102128;;;-7.5;86.9
79347;BME280;68815;48.810;44.482;2024-02-23T01:35:37;102126;;;-7.3;86.4
79347;BME280;68815;48.810;44.482;2024-02-23T01:38:40;102125;;;-7.4;86
79347;BME280;68815;48.810;44.482;2024-02-23T01:41:41;102126;;;-7.3;86.3
79347;BME280;68815;48.810;44.482;2024-02-23T01:44:43;102122;;;-7.1;85.7
79347;BME280;68815;48.810;44.482;2024-02-23T01:47:45;102126;;;-6.8;85.1
79347;BME280;68815;48.810;44.482;2024-02-23T01:50:47;102125;;;-7;84.7
79347;BME280;68815;48.810;44.482;2024-02-23T01:53:49;102132;;;-7.2;85.5
79347;BME280;68815;48.810;44.482;2024-02-23T01:56:52;102126;;;-7.1;85.5
79347;BME280;68815;48.810;44.482;2024-02-23T01:59:54;102131;;;-7.4;86.2
79347;BME280;68815;48.810;44.482;2024-02-23T02:02:57;102131;;;-7.2;86.3
79347;BME280;68815;48.810;44.482;2024-02-23T02:06:00;102131;;;-7.2;85.7
79347;BME280;68815;48.810;44.482;2024-02-23T02:09:02;102131;;;-7.1;85.5
79347;BME280;68815;48.810;44.482;2024-02-23T02:12:05;102135;;;-7.1;85.7
79347;BME280;68815;48.810;44.482;2024-02-23T02:15:07;102132;;;-7.3;86.1
79347;BME280;68815;48.810;44.482;2024-02-23T02:18:09;102143;;;-7.3;86.7
79347;BME280;68815;48.810;44.482;2024-02-23T02:21:11;102142;;;-7.2;86.9
79347;BME280;68815;48.810;44.482;2024-02-23T02:24:13;102146;;;-7;86.4
79347;BME280;68815;48.810;44.482;2024-02-23T02:27:14;102147;;;-7.2;86.5
79347;BME280;68815;48.810;44.482;2024-02-23T02:30:16;102150;;;-7.2;86.6
79347;BME280;68815;48.810;44.482;2024-02-23T02:33:18;102153;;;-7;86.5
79347;BME280;68815;48.810;44.482;2024-02-23T02:36:20;102161;;;-7.1;86.6
79347;BME280;68815;48.810;44.482;2024-02-23T02:39:22;102162;;;-7.2;86.9
79347;BME280;68815;48.810;44.482;2024-02-23T02:42:24;102159;;;-7.3;87.2
79347;BME280;68815;48.810;44.482;2024-02-23T02:45:25;102169;;;-7.2;86.9
79347;BME280;68815;48.810;44.482;2024-02-23T02:48:27;102162;;;-7.2;86.8
79347;BME280;68815;48.810;44.482;2024-02-23T02:51:29;102165;;;-7.2;86.5
79347;BME280;68815;48.810;44.482;2024-02-23T02:54:31;102161;;;-7.1;86.4
79347;BME280;68815;48.810;44.482;2024-02-23T02:57:32;102175;;;-7.2;86.3
79347;BME280;68815;48.810;44.482;2024-02-23T03:00:34;102173;;;-7.1;85.7
79347;BME280;68815;48.810;44.482;2024-02-23T03:03:36;102175;;;-7.2;85.3
79347;BME280;68815;48.810;44.482;2024-02-23T03:06:38;102179;;;-7.1;85.8
79347;BME280;68815;48.810;44.482;2024-02-23T03:09:40;102175;;;-7.1;85.7
79347;BME280;68815;48.810;44.482;2024-02-23T03:12:42;102178;;;-7.1;84.9
79347;BME280;68815;48.810;44.482;2024-02-23T03:15:43;102174;;;-7.1;84.8
79347;BME280;68815;48.810;44.482;2024-02-23T03:18:45;102172;;;-7.1;84.6
79347;BME280;68815;48.810;44.482;2024-02-23T03:21:46;102177;;;-7;84.3
79347;BME280;68815;48.810;44.482;2024-02-23T03:24:48;102189;;;-7.1;84.1
79347;BME280;68815;48.810;44.482;2024-02-23T03:27:51;102183;;;-7;83.2
79347;BME280;68815;48.810;44.482;2024-02-23T03:30:52;102184;;;-7;82.8
79347;BME280;68815;48.810;44.482;2024-02-23T03:33:54;102182;;;-7;82.4
79347;BME280;68815;48.810;44.482;2024-02-23T03:36:55;102187;;;-7;82.8
79347;BME280;68815;48.810;44.482;2024-02-23T03:39:57;102194;;;-7;82.2
79347;BME280;68815;48.810;44.482;2024-02-23T03:42:59;102187;;;-7;82.3
79347;BME280;68815;48.810;44.482;2024-02-23T03:46:01;102193;;;-7;82.4
79347;BME280;68815;48.810;44.482;2024-02-23T03:49:02;102189;;;-7.2;82.7
79347;BME280;68815;48.810;44.482;2024-02-23T03:52:04;102193;;;-7.3;82.9
79347;BME280;68815;48.810;44.482;2024-02-23T03:55:06;102197;;;-7.2;82.9
79347;BME280;68815;48.810;44.482;2024-02-23T03:58:08;102200;;;-7.2;82.4
79347;BME280;68815;48.810;44.482;2024-02-23T04:01:10;102205;;;-7.2;82.7
79347;BME280;68815;48.810;44.482;2024-02-23T04:04:12;102204;;;-7.1;82.2
79347;BME280;68815;48.810;44.482;2024-02-23T04:07:15;102198;;;-7.3;82.8
79347;BME280;68815;48.810;44.482;2024-02-23T04:10:17;102209;;;-7.2;82.7
79347;BME280;68815;48.810;44.482;2024-02-23T04:13:19;102206;;;-7.2;83.1
79347;BME280;68815;48.810;44.482;2024-02-23T04:16:23;102224;;;-7.2;82.6
79347;BME280;68815;48.810;44.482;2024-02-23T04:19:25;102217;;;-7.3;82.5
79347;BME280;68815;48.810;44.482;2024-02-23T04:22:31;102218;;;-7.2;82.4
79347;BME280;68815;48.810;44.482;2024-02-23T04:25:34;102221;;;-7.2;82.5
79347;BME280;68815;48.810;44.482;2024-02-23T04:28:38;102222;;;-7.3;82.4
79347;BME280;68815;48.810;44.482;2024-02-23T04:31:40;102216;;;-7.3;81.9
79347;BME280;68815;48.810;44.482;2024-02-23T04:34:42;102222;;;-7.2;81.9
79347;BME280;68815;48.810;44.482;2024-02-23T04:37:44;102230;;;-7.1;81.5
79347;BME280;68815;48.810;44.482;2024-02-23T04:40:46;102227;;;-7;81.7
79347;BME280;68815;48.810;44.482;2024-02-23T04:43:48;102234;;;-7;80.9
79347;BME280;68815;48.810;44.482;2024-02-23T04:46:50;102236;;;-7.1;80.7
79347;BME280;68815;48.810;44.482;2024-02-23T04:49:51;102234;;;-7.1;80.8
79347;BME280;68815;48.810;44.482;2024-02-23T04:52:53;102232;;;-7;80.6
79347;BME280;68815;48.810;44.482;2024-02-23T04:55:55;102231;;;-7.1;80.6
79347;BME280;68815;48.810;44.482;2024-02-23T04:58:57;102230;;;-6.9;80.4
79347;BME280;68815;48.810;44.482;2024-02-23T05:01:59;102236;;;-7.1;80.6
79347;BME280;68815;48.810;44.482;2024-02-23T05:05:01;102242;;;-7;80.1
79347;BME280;68815;48.810;44.482;2024-02-23T05:08:03;102246;;;-6.8;79.8
79347;BME280;68815;48.810;44.482;2024-02-23T05:11:05;102256;;;-6.9;79.6
79347;BME280;68815;48.810;44.482;2024-02-23T05:14:07;102251;;;-6.8;79.4
79347;BME280;68815;48.810;44.482;2024-02-23T05:17:08;102251;;;-6.7;78.9
79347;BME280;68815;48.810;44.482;2024-02-23T05:20:11;102252;;;-6.6;78.5
79347;BME280;68815;48.810;44.482;2024-02-23T05:23:13;102261;;;-6.9;79.2
79347;BME280;68815;48.810;44.482;2024-02-23T05:26:15;102257;;;-6.7;79.4
79347;BME280;68815;48.810;44.482;2024-02-23T05:29:17;102262;;;-6.8;79.4
79347;BME280;68815;48.810;44.482;2024-02-23T05:32:18;102259;;;-6.9;79.5
79347;BME280;68815;48.810;44.482;2024-02-23T05:35:20;102268;;;-6.7;79.3
79347;BME280;68815;48.810;44.482;2024-02-23T05:38:22;102276;;;-6.8;79.1
79347;BME280;68815;48.810;44.482;2024-02-23T05:41:23;102271;;;-6.5;79.1
79347;BME280;68815;48.810;44.482;2024-02-23T05:44:25;102274;;;-6.6;78.5
79347;BME280;68815;48.810;44.482;2024-02-23T05:47:27;102278;;;-6.8;78.3
79347;BME280;68815;48.810;44.482;2024-02-23T05:50:28;102283;;;-6.6;78
79347;BME280;68815;48.810;44.482;2024-02-23T05:53:30;102287;;;-6.7;78.4
79347;BME280;68815;48.810;44.482;2024-02-23T05:56:32;102284;;;-6.5;78.2
79347;BME280;68815;48.810;44.482;2024-02-23T05:59:33;102295;;;-6.6;77.4
79347;BME280;68815;48.810;44.482;2024-02-23T06:02:35;102285;;;-6.5;78
79347;BME280;68815;48.810;44.482;2024-02-23T06:05:37;102282;;;-6.6;77.6
79347;BME280;68815;48.810;44.482;2024-02-23T06:08:39;102289;;;-6.5;78.2
79347;BME280;68815;48.810;44.482;2024-02-23T06:11:40;102290;;;-6.6;78.1
79347;BME280;68815;48.810;44.482;2024-02-23T06:14:42;102284;;;-6.4;77.9
79347;BME280;68815;48.810;44.482;2024-02-23T06:17:44;102289;;;-6.4;77.2
79347;BME280;68815;48.810;44.482;2024-02-23T06:20:45;102290;;;-6.6;78
79347;BME280;68815;48.810;44.482;2024-02-23T06:23:47;102288;;;-6.6;78.6
79347;BME280;68815;48.810;44.482;2024-02-23T06:26:50;102287;;;-6.6;78.6
79347;BME280;68815;48.810;44.482;2024-02-23T06:29:51;102286;;;-6.5;78.6
79347;BME280;68815;48.810;44.482;2024-02-23T06:32:53;102286;;;-6.4;78.3
79347;BME280;68815;48.810;44.482;2024-02-23T06:35:55;102299;;;-6.5;78.1
79347;BME280;68815;48.810;44.482;2024-02-23T06:38:57;102294;;;-6.5;78.2
79347;BME280;68815;48.810;44.482;2024-02-23T06:41:59;102300;;;-6.4;78.5
79347;BME280;68815;48.810;44.482;2024-02-23T06:45:01;102296;;;-6.5;79
79347;BME280;68815;48.810;44.482;2024-02-23T06:48:03;102296;;;-6.5;79.3
79347;BME280;68815;48.810;44.482;2024-02-23T06:51:05;102295;;;-6.4;79.2
79347;BME280;68815;48.810;44.482;2024-02-23T06:54:07;102296;;;-6.2;79
79347;BME280;68815;48.810;44.482;2024-02-23T06:57:09;102291;;;-6.2;78.4
79347;BME280;68815;48.810;44.482;2024-02-23T07:00:11;102289;;;-6.3;79.1
79347;BME280;68815;48.810;44.482;2024-02-23T07:03:13;102286;;;-6.1;78.9
79347;BME280;68815;48.810;44.482;2024-02-23T07:06:15;102293;;;-6.2;78.8
79347;BME280;68815;48.810;44.482;2024-02-23T07:09:17;102290;;;-6.1;78.9
79347;BME280;68815;48.810;44.482;2024-02-23T07:12:18;102296;;;-6.1;78.5
79347;BME280;68815;48.810;44.482;2024-02-23T07:15:20;102297;;;-6.1;78.2
79347;BME280;68815;48.810;44.482;2024-02-23T07:18:22;102301;;;-6;78.3
79347;BME280;68815;48.810;44.482;2024-02-23T07:21:24;102306;;;-6.1;78.6
79347;BME280;68815;48.810;44.482;2024-02-23T07:24:25;102310;;;-6;78.1
79347;BME280;68815;48.810;44.482;2024-02-23T07:27:28;102315;;;-6;77.6
79347;BME280;68815;48.810;44.482;2024-02-23T07:30:31;102313;;;-6;78.6
79347;BME280;68815;48.810;44.482;2024-02-23T07:33:33;102316;;;-5.9;78.1
79347;BME280;68815;48.810;44.482;2024-02-23T07:36:35;102320;;;-5.9;77.7
79347;BME280;68815;48.810;44.482;2024-02-23T07:39:37;102320;;;-5.7;77.7
79347;BME280;68815;48.810;44.482;2024-02-23T07:42:38;102329;;;-5.9;77
79347;BME280;68815;48.810;44.482;2024-02-23T07:45:41;102326;;;-5.7;77.1
79347;BME280;68815;48.810;44.482;2024-02-23T07:48:43;102330;;;-5.8;76.8
79347;BME280;68815;48.810;44.482;2024-02-23T07:51:44;102328;;;-5.8;77
79347;BME280;68815;48.810;44.482;2024-02-23T07:54:47;102322;;;-5.8;77.2
79347;BME280;68815;48.810;44.482;2024-02-23T07:57:48;102347;;;-5.7;76.7
79347;BME280;68815;48.810;44.482;2024-02-23T08:00:50;102335;;;-5.7;77.2
79347;BME280;68815;48.810;44.482;2024-02-23T08:03:52;102336;;;-5.7;76.9
79347;BME280;68815;48.810;44.482;2024-02-23T08:06:53;102333;;;-5.5;76.3
79347;BME280;68815;48.810;44.482;2024-02-23T08:09:55;102338;;;-5.6;76.1
79347;BME280;68815;48.810;44.482;2024-02-23T08:12:57;102334;;;-5.5;76
79347;BME280;68815;48.810;44.482;2024-02-23T08:15:59;102343;;;-5.4;76.2
79347;BME280;68815;48.810;44.482;2024-02-23T08:19:01;102339;;;-5.5;76.4
79347;BME280;68815;48.810;44.482;2024-02-23T08:22:03;102351;;;-5.4;76
79347;BME280;68815;48.810;44.482;2024-02-23T08:25:07;102341;;;-5.3;75.7
79347;BME280;68815;48.810;44.482;2024-02-23T08:28:08;102358;;;-5.6;75.8
79347;BME280;68815;48.810;44.482;2024-02-23T08:31:11;102360;;;-5.3;75.8
79347;BME280;68815;48.810;44.482;2024-02-23T08:34:13;102364;;;-5.4;75.2
79347;BME280;68815;48.810;44.482;2024-02-23T08:37:14;102350;;;-5.4;75.9
79347;BME280;68815;48.810;44.482;2024-02-23T08:40:16;102354;;;-5.4;76
79347;BME280;68815;48.810;44.482;2024-02-23T08:43:19;102353;;;-5.4;75.8
79347;BME280;68815;48.810;44.482;2024-02-23T08:46:21;102351;;;-5.3;75.9
79347;BME280;68815;48.810;44.482;2024-02-23T08:49:22;102359;;;-5.5;76.1
79347;BME280;68815;48.810;44.482;2024-02-23T08:52:24;102358;;;-5.5;75.8
79347;BME280;68815;48.810;44.482;2024-02-23T08:55:26;102355;;;-5.5;76.1
79347;BME280;68815;48.810;44.482;2024-02-23T08:58:28;102353;;;-5.5;76.1
79347;BME280;68815;48.810;44.482;2024-02-23T09:01:30;102347;;;-5.2;75.6
79347;BME280;68815;48.810;44.482;2024-02-23T09:04:31;102344;;;-5.2;76.1
79347;BME280;68815;48.810;44.482;2024-02-23T09:07:33;102343;;;-5.2;76.1
79347;BME280;68815;48.810;44.482;2024-02-23T09:10:35;102349;;;-5;74.9
79347;BME280;68815;48.810;44.482;2024-02-23T09:13:37;102340;;;-5.2;75.2
79347;BME280;68815;48.810;44.482;2024-02-23T09:16:38;102343;;;-5.2;75.2
79347;BME280;68815;48.810;44.482;2024-02-23T09:19:40;102342;;;-5.1;74.9
79347;BME280;68815;48.810;44.482;2024-02-23T09:22:42;102351;;;-5.2;75.2
79347;BME280;68815;48.810;44.482;2024-02-23T09:25:44;102352;;;-5.3;75.9
79347;BME280;68815;48.810;44.482;2024-02-23T09:28:45;102348;;;-5.2;75.4
79347;BME280;68815;48.810;44.482;2024-02-23T09:31:48;102351;;;-5.3;75.2
79347;BME280;68815;48.810;44.482;2024-02-23T09:34:50;102346;;;-5.1;75.4
79347;BME280;68815;48.810;44.482;2024-02-23T09:37:51;102345;;;-5;75.4
79347;BME280;68815;48.810;44.482;2024-02-23T09:40:53;102349;;;-4.9;75.5
79347;BME280;68815;48.810;44.482;2024-02-23T09:43:58;102351;;;-5.2;74.6
79347;BME280;68815;48.810;44.482;2024-02-23T09:47:00;102333;;;-5.1;75.3
79347;BME280;68815;48.810;44.482;2024-02-23T09:50:03;102345;;;-5.1;74.8
79347;BME280;68815;48.810;44.482;2024-02-23T09:53:06;102344;;;-5;75.1
79347;BME280;68815;48.810;44.482;2024-02-23T09:56:09;102342;;;-4.8;75
79347;BME280;68815;48.810;44.482;2024-02-23T09:59:12;102341;;;-4.8;74.9
79347;BME280;68815;48.810;44.482;2024-02-23T10:02:15;102334;;;-4.8;74.6
79347;BME280;68815;48.810;44.482;2024-02-23T10:05:18;102329;;;-4.8;74.8
79347;BME280;68815;48.810;44.482;2024-02-23T10:08:21;102344;;;-4.9;74.5
79347;BME280;68815;48.810;44.482;2024-02-23T10:11:24;102344;;;-4.9;74.7
79347;BME280;68815;48.810;44.482;2024-02-23T10:14:29;102348;;;-4.8;74.6
79347;BME280;68815;48.810;44.482;2024-02-23T10:17:31;102360;;;-4.8;74.2
79347;BME280;68815;48.810;44.482;2024-02-23T10:20:33;102346;;;-4.7;74.1
79347;BME280;68815;48.810;44.482;2024-02-23T10:23:35;102358;;;-4.8;73.7
79347;BME280;68815;48.810;44.482;2024-02-23T10:26:37;102355;;;-4.8;73.7
79347;BME280;68815;48.810;44.482;2024-02-23T10:29:38;102353;;;-4.7;74
79347;BME280;68815;48.810;44.482;2024-02-23T10:32:40;102356;;;-4.7;73.8
79347;BME280;68815;48.810;44.482;2024-02-23T10:35:45;102345;;;-4.6;74
79347;BME280;68815;48.810;44.482;2024-02-23T10:38:48;102353;;;-4.5;73
79347;BME280;68815;48.810;44.482;2024-02-23T10:41:56;102352;;;-4.5;73
79347;BME280;68815;48.810;44.482;2024-02-23T10:45:00;102358;;;-4.7;73
79347;BME280;68815;48.810;44.482;2024-02-23T10:48:03;102367;;;-4.7;73
79347;BME280;68815;48.810;44.482;2024-02-23T10:51:06;102352;;;-4.7;73.3
79347;BME280;68815;48.810;44.482;2024-02-23T10:54:08;102363;;;-4.6;73.3
79347;BME280;68815;48.810;44.482;2024-02-23T10:57:12;102362;;;-4.6;73
79347;BME280;68815;48.810;44.482;2024-02-23T11:00:14;102365;;;-4.5;73
79347;BME280;68815;48.810;44.482;2024-02-23T11:03:17;102362;;;-4.5;73.2
79347;BME280;68815;48.810;44.482;2024-02-23T11:06:23;102372;;;-4.4;72.9
79347;BME280;68815;48.810;44.482;2024-02-23T11:09:32;102370;;;-4.4;72.7
79347;BME280;68815;48.810;44.482;2024-02-23T11:12:34;102368;;;-4.3;72.6
79347;BME280;68815;48.810;44.482;2024-02-23T11:15:42;102369;;;-4.3;72.1
79347;BME280;68815;48.810;44.482;2024-02-23T11:18:45;102380;;;-4.4;72.1
79347;BME280;68815;48.810;44.482;2024-02-23T11:21:52;102358;;;-4.4;72.3
79347;BME280;68815;48.810;44.482;2024-02-23T11:25:00;102365;;;-4.2;72.3
79347;BME280;68815;48.810;44.482;2024-02-23T11:28:03;102375;;;-4.4;71.5
79347;BME280;68815;48.810;44.482;2024-02-23T11:31:11;102368;;;-4.3;71.8
79347;BME280;68815;48.810;44.482;2024-02-23T11:34:14;102374;;;-4.4;71.3
79347;BME280;68815;48.810;44.482;2024-02-23T11:37:23;102370;;;-4.4;71.7
79347;BME280;68815;48.810;44.482;2024-02-23T11:40:30;102374;;;-4.3;72.2
79347;BME280;68815;48.810;44.482;2024-02-23T11:43:34;102373;;;-4.3;72.2
79347;BME280;68815;48.810;44.482;2024-02-23T11:46:36;102372;;;-4.2;72.4
79347;BME280;68815;48.810;44.482;2024-02-23T11:49:38;102373;;;-4.3;72.6
79347;BME280;68815;48.810;44.482;2024-02-23T11:52:40;102374;;;-4.3;73.5
79347;BME280;68815;48.810;44.482;2024-02-23T11:55:42;102366;;;-4.2;73.5
79347;BME280;68815;48.810;44.482;2024-02-23T11:58:46;102386;;;-4.2;73.5
79347;BME280;68815;48.810;44.482;2024-02-23T12:01:48;102370;;;-4.3;74
79347;BME280;68815;48.810;44.482;2024-02-23T12:04:50;102379;;;-4.2;74.1
79347;BME280;68815;48.810;44.482;2024-02-23T12:07:51;102373;;;-4.2;73.6
79347;BME280;68815;48.810;44.482;2024-02-23T12:10:54;102382;;;-4.3;74
79347;BME280;68815;48.810;44.482;2024-02-23T12:13:56;102388;;;-4.2;74.2
79347;BME280;68815;48.810;44.482;2024-02-23T12:16:58;102395;;;-4.2;74.1
79347;BME280;68815;48.810;44.482;2024-02-23T12:20:00;102392;;;-4;74.3
79347;BME280;68815;48.810;44.482;2024-02-23T12:23:03;102388;;;-4.2;74.2
79347;BME280;68815;48.810;44.482;2024-02-23T12:26:05;102384;;;-4.1;73.7
79347;BME280;68815;48.810;44.482;2024-02-23T12:29:06;102386;;;-4.1;74.1
79347;BME280;68815;48.810;44.482;2024-02-23T12:32:08;102389;;;-4.2;74.5
79347;BME280;68815;48.810;44.482;2024-02-23T12:35:11;102389;;;-4;74
79347;BME280;68815;48.810;44.482;2024-02-23T12:38:13;102395;;;-4;73.6
79347;BME280;68815;48.810;44.482;2024-02-23T12:41:15;102400;;;-4;73.4
79347;BME280;68815;48.810;44.482;2024-02-23T12:44:17;102411;;;-4;73.7
79347;BME280;68815;48.810;44.482;2024-02-23T12:47:19;102403;;;-4.2;74.2
79347;BME280;68815;48.810;44.482;2024-02-23T12:50:21;102400;;;-4.1;74.2
79347;BME280;68815;48.810;44.482;2024-02-23T12:53:38;102394;;;-4.1;74.2
79347;BME280;68815;48.810;44.482;2024-02-23T12:56:41;102394;;;-4.1;74
79347;BME280;68815;48.810;44.482;2024-02-23T12:59:43;102405.01;;;-4;73.8
79347;BME280;68815;48.810;44.482;2024-02-23T13:02:45;102415;;;-3.9;74.1
79347;BME280;68815;48.810;44.482;2024-02-23T13:05:46;102410;;;-4;73.3
79347;BME280;68815;48.810;44.482;2024-02-23T13:08:48;102411;;;-3.9;73.5
79347;BME280;68815;48.810;44.482;2024-02-23T13:11:50;102418.99;;;-3.9;74
79347;BME280;68815;48.810;44.482;2024-02-23T13:14:51;102417.01;;;-4;73.6
79347;BME280;68815;48.810;44.482;2024-02-23T13:17:53;102426;;;-4;73.6
79347;BME280;68815;48.810;44.482;2024-02-23T13:20:55;102421;;;-4.1;73.7
79347;BME280;68815;48.810;44.482;2024-02-23T13:23:57;102429;;;-4.1;73.5
79347;BME280;68815;48.810;44.482;2024-02-23T13:27:00;102439;;;-4.1;73.6
79347;BME280;68815;48.810;44.482;2024-02-23T13:30:02;102432.99;;;-4;74
79347;BME280;68815;48.810;44.482;2024-02-23T13:33:05;102430.01;;;-4;73.6
79347;BME280;68815;48.810;44.482;2024-02-23T13:36:07;102438;;;-3.9;73.6
79347;BME280;68815;48.810;44.482;2024-02-23T13:39:09;102438;;;-4;73.7
79347;BME280;68815;48.810;44.482;2024-02-23T13:42:11;102450;;;-4;73.5
79347;BME280;68815;48.810;44.482;2024-02-23T13:45:12;102444.99;;;-3.9;73.9
79347;BME280;68815;48.810;44.482;2024-02-23T13:48:14;102447;;;-4.1;74.9
79347;BME280;68815;48.810;44.482;2024-02-23T13:51:16;102454;;;-3.9;74.8
79347;BME280;68815;48.810;44.482;2024-02-23T13:54:18;102455.01;;;-4.1;74.8
79347;BME280;68815;48.810;44.482;2024-02-23T13:57:21;102459;;;-4.3;75.2
79347;BME280;68815;48.810;44.482;2024-02-23T14:00:23;102456.99;;;-4.2;76
79347;BME280;68815;48.810;44.482;2024-02-23T14:03:25;102462;;;-4.2;76.3
79347;BME280;68815;48.810;44.482;2024-02-23T14:06:26;102462;;;-4.2;76.8
79347;BME280;68815;48.810;44.482;2024-02-23T14:09:28;102466;;;-4.3;76.3
79347;BME280;68815;48.810;44.482;2024-02-23T14:12:30;102473;;;-4.4;76.6
79347;BME280;68815;48.810;44.482;2024-02-23T14:15:32;102468.01;;;-4.3;76.2
79347;BME280;68815;48.810;44.482;2024-02-23T14:18:34;102473;;;-4.3;76
79347;BME280;68815;48.810;44.482;2024-02-23T14:21:35;102480.01;;;-4.4;76.3
79347;BME280;68815;48.810;44.482;2024-02-23T14:24:37;102486;;;-4.4;76.3
79347;BME280;68815;48.810;44.482;2024-02-23T14:27:39;102481.01;;;-4.3;75.8
79347;BME280;68815;48.810;44.482;2024-02-23T14:30:40;102485;;;-4.5;75.6
79347;BME280;68815;48.810;44.482;2024-02-23T14:33:42;102488;;;-4.4;75.6
79347;BME280;68815;48.810;44.482;2024-02-23T14:36:44;102489;;;-4.3;75.5
79347;BME280;68815;48.810;44.482;2024-02-23T14:39:45;102505.01;;;-4.5;74.9
79347;BME280;68815;48.810;44.482;2024-02-23T14:42:47;102500;;;-4.7;74.6
79347;BME280;68815;48.810;44.482;2024-02-23T14:45:49;102509;;;-4.7;74.8
79347;BME280;68815;48.810;44.482;2024-02-23T14:48:50;102512;;;-4.8;74.9
79347;BME280;68815;48.810;44.482;2024-02-23T14:51:52;102518.01;;;-4.7;75.1
79347;BME280;68815;48.810;44.482;2024-02-23T14:54:54;102523;;;-4.7;74.8
79347;BME280;68815;48.810;44.482;2024-02-23T14:57:57;102538;;;-5;74.9
79347;BME280;68815;48.810;44.482;2024-02-23T15:00:58;102536;;;-5;75.7
79347;BME280;68815;48.810;44.482;2024-02-23T15:04:00;102532.99;;;-4.9;75
79347;BME280;68815;48.810;44.482;2024-02-23T15:07:02;102543.99;;;-4.9;75.1
79347;BME280;68815;48.810;44.482;2024-02-23T15:10:05;102543.01;;;-5.1;75.3
79347;BME280;68815;48.810;44.482;2024-02-23T15:13:07;102557.99;;;-5.1;75
79347;BME280;68815;48.810;44.482;2024-02-23T15:16:08;102554;;;-5.2;74.7
79347;BME280;68815;48.810;44.482;2024-02-23T15:19:10;102557.99;;;-5.3;74.6
79347;BME280;68815;48.810;44.482;2024-02-23T15:22:12;102557.99;;;-5.2;74.7
79347;BME280;68815;48.810;44.482;2024-02-23T15:25:14;102559;;;-5;74.6
79347;BME280;68815;48.810;44.482;2024-02-23T15:28:16;102564;;;-4.9;73.9
79347;BME280;68815;48.810;44.482;2024-02-23T15:31:17;102572;;;-4.9;73.8
79347;BME280;68815;48.810;44.482;2024-02-23T15:34:19;102566;;;-5.2;74.2
79347;BME280;68815;48.810;44.482;2024-02-23T15:37:21;102565;;;-5.1;74.1
79347;BME280;68815;48.810;44.482;2024-02-23T15:40:23;102572;;;-5;74.2
79347;BME280;68815;48.810;44.482;2024-02-23T15:43:26;102571;;;-5.2;74.2
79347;BME280;68815;48.810;44.482;2024-02-23T15:46:28;102578;;;-5.3;74.4
79347;BME280;68815;48.810;44.482;2024-02-23T15:49:29;102588;;;-5.3;74.3
79347;BME280;68815;48.810;44.482;2024-02-23T15:52:32;102585;;;-5.4;74.5
79347;BME280;68815;48.810;44.482;2024-02-23T15:55:33;102586;;;-5.3;74.4
79347;BME280;68815;48.810;44.482;2024-02-23T15:58:36;102589;;;-5.4;74.8
79347;BME280;68815;48.810;44.482;2024-02-23T16:01:39;102593.01;;;-5.5;74.6
79347;BME280;68815;48.810;44.482;2024-02-23T16:04:41;102585;;;-5.5;74.6
79347;BME280;68815;48.810;44.482;2024-02-23T16:07:43;102592.01;;;-5.4;74.3
79347;BME280;68815;48.810;44.482;2024-02-23T16:10:45;102589;;;-5.3;73.4
79347;BME280;68815;48.810;44.482;2024-02-23T16:13:47;102594.99;;;-5.6;73.7
79347;BME280;68815;48.810;44.482;2024-02-23T16:16:48;102593.01;;;-5.5;74
79347;BME280;68815;48.810;44.482;2024-02-23T16:19:50;102589;;;-5.4;73.7
79347;BME280;68815;48.810;44.482;2024-02-23T16:22:52;102593.01;;;-5.7;73.7
79347;BME280;68815;48.810;44.482;2024-02-23T16:25:54;102594.99;;;-5.6;74.3
79347;BME280;68815;48.810;44.482;2024-02-23T16:28:57;102602;;;-5.8;74.7
79347;BME280;68815;48.810;44.482;2024-02-23T16:31:59;102598;;;-5.7;74.6
79347;BME280;68815;48.810;44.482;2024-02-23T16:35:01;102597;;;-5.7;74.8
79347;BME280;68815;48.810;44.482;2024-02-23T16:38:03;102593.01;;;-5.6;74.8
79347;BME280;68815;48.810;44.482;2024-02-23T16:41:05;102603;;;-5.8;74.7
79347;BME280;68815;48.810;44.482;2024-02-23T16:44:07;102606.01;;;-5.7;74.8
79347;BME280;68815;48.810;44.482;2024-02-23T16:47:08;102613;;;-5.8;75.1